| time (UTC) | temp F | wind direction | speed knots | gust knots | rain 1hr in | rain 24hr in | rain mn in | humidity % | barometer mb |
| 20260507162026 | 63 | 326 | 0.9 | 1.7 | 0.00 | 0.00 | 0.00 | 57 | 1020.7 |
| 20260507161026 | 63 | 326 | 0.0 | 1.7 | 0.00 | 0.00 | 0.00 | 56 | 1020.5 |
| 20260507160035 | 64 | 326 | 0.9 | 1.7 | 0.00 | 0.00 | 0.00 | 55 | 1020.5 |
| 20260507155044 | 63 | 326 | 0.9 | 1.7 | 0.00 | 0.00 | 0.00 | 57 | 1020.7 |
| 20260507154029 | 63 | 325 | 0.9 | 4.3 | 0.00 | 0.00 | 0.00 | 56 | 1020.8 |
| 20260507153016 | 64 | 332 | 2.6 | 5.2 | 0.00 | 0.00 | 0.00 | 56 | 1021.1 |
| 20260507152023 | 64 | 325 | 0.9 | 4.3 | 0.00 | 0.00 | 0.00 | 57 | 1020.8 |
| 20260507151028 | 63 | 327 | 1.7 | 4.3 | 0.00 | 0.00 | 0.00 | 56 | 1021.0 |
| 20260507150032 | 63 | 331 | 3.5 | 7.8 | 0.00 | 0.00 | 0.00 | 56 | 1021.0 |
| 20260507145025 | 64 | 323 | 4.3 | 9.6 | 0.00 | 0.00 | 0.00 | 55 | 1021.1 |
| 20260507144052 | 64 | 341 | 6.1 | 12.2 | 0.00 | 0.00 | 0.00 | 55 | 1021.2 |
| 20260507143015 | 64 | 329 | 6.1 | 10.4 | 0.00 | 0.00 | 0.00 | 54 | 1021.0 |
| 20260507142015 | 65 | 319 | 4.3 | 8.7 | 0.00 | 0.00 | 0.00 | 53 | 1020.9 |
| 20260507141045 | 65 | 334 | 4.3 | 7.0 | 0.00 | 0.00 | 0.00 | 52 | 1020.8 |
| 20260507140031 | 65 | 336 | 5.2 | 7.8 | 0.00 | 0.00 | 0.00 | 51 | 1020.8 |
| 20260507135019 | 65 | 317 | 3.5 | 8.7 | 0.00 | 0.00 | 0.00 | 52 | 1020.7 |
| 20260507134028 | 65 | 360 | 6.1 | 12.2 | 0.00 | 0.00 | 0.00 | 51 | 1021.1 |
| 20260507133015 | 66 | 322 | 8.7 | 13.0 | 0.00 | 0.00 | 0.00 | 52 | 1021.0 |
| 20260507132017 | 67 | 331 | 8.7 | 11.3 | 0.00 | 0.00 | 0.00 | 52 | 1020.7 |
| 20260507131044 | 67 | 323 | 3.5 | 7.8 | 0.00 | 0.00 | 0.00 | 54 | 1020.6 |
| 20260507130031 | 68 | 270 | 4.3 | 7.0 | 0.00 | 0.00 | 0.00 | 53 | 1020.4 |
| 20260507125052 | 68 | 330 | 4.3 | 8.7 | 0.00 | 0.00 | 0.00 | 53 | 1020.4 |
| 20260507124017 | 69 | 344 | 5.2 | 8.7 | 0.00 | 0.00 | 0.00 | 50 | 1020.7 |
| 20260507123027 | 70 | 303 | 2.6 | 8.7 | 0.00 | 0.00 | 0.00 | 52 | 1020.6 |
| 20260507122016 | 69 | 331 | 7.0 | 10.4 | 0.00 | 0.00 | 0.00 | 51 | 1020.7 |
| 20260507121022 | 67 | 344 | 7.0 | 11.3 | 0.00 | 0.00 | 0.00 | 53 | 1021.0 |
| 20260507120032 | 68 | 335 | 6.1 | 12.2 | 0.00 | 0.00 | 0.00 | 52 | 1021.1 |
| 20260507115027 | 68 | 325 | 8.7 | 12.2 | 0.00 | 0.00 | 0.00 | 54 | 1021.1 |
| 20260507114017 | 66 | 326 | 7.0 | 12.2 | 0.00 | 0.00 | 0.00 | 56 | 1021.3 |
| 20260507113026 | 66 | 324 | 7.8 | 12.2 | 0.00 | 0.00 | 0.00 | 55 | 1021.2 |
| 20260507112016 | 67 | 331 | 8.7 | 10.4 | 0.00 | 0.00 | 0.00 | 55 | 1021.3 |
| 20260507111024 | 66 | 306 | 2.6 | 7.8 | 0.00 | 0.00 | 0.00 | 57 | 1021.0 |
| 20260507110032 | 66 | 325 | 6.1 | 10.4 | 0.00 | 0.00 | 0.00 | 56 | 1021.1 |
| 20260507105019 | 66 | 339 | 2.6 | 5.2 | 0.00 | 0.00 | 0.00 | 54 | 1021.0 |
| 20260507104019 | 67 | 350 | 3.5 | 7.8 | 0.00 | 0.00 | 0.00 | 54 | 1021.0 |
| 20260507103027 | 67 | 340 | 2.6 | 7.8 | 0.00 | 0.00 | 0.00 | 50 | 1021.2 |
| 20260507102016 | 67 | 327 | 3.5 | 8.7 | 0.00 | 0.00 | 0.00 | 53 | 1021.4 |
| 20260507101025 | 68 | 342 | 2.6 | 7.0 | 0.00 | 0.00 | 0.00 | 53 | 1021.2 |
| 20260507100032 | 67 | 309 | 2.6 | 9.6 | 0.00 | 0.00 | 0.00 | 51 | 1021.3 |
| 20260507095025 | 67 | 321 | 5.2 | 9.6 | 0.00 | 0.00 | 0.00 | 52 | 1021.2 |
| 20260507094013 | 67 | 313 | 2.6 | 7.8 | 0.00 | 0.00 | 0.00 | 51 | 1021.2 |
| 20260507093040 | 66 | 323 | 3.5 | 9.6 | 0.00 | 0.00 | 0.00 | 53 | 1021.2 |
| 20260507092027 | 66 | 312 | 4.3 | 7.8 | 0.00 | 0.00 | 0.00 | 52 | 1021.3 |
| 20260507091033 | 65 | 325 | 5.2 | 7.8 | 0.00 | 0.00 | 0.00 | 52 | 1021.0 |
| 20260507090033 | 66 | 346 | 3.5 | 7.8 | 0.00 | 0.00 | 0.00 | 52 | 1021.1 |
| 20260507085027 | 66 | 343 | 4.3 | 8.7 | 0.00 | 0.00 | 0.00 | 51 | 1021.0 |
| 20260507084013 | 67 | 315 | 4.3 | 7.8 | 0.00 | 0.00 | 0.00 | 50 | 1021.1 |
| 20260507083020 | 65 | 330 | 4.3 | 8.7 | 0.00 | 0.00 | 0.00 | 51 | 1021.1 |
| 20260507082038 | 66 | 295 | 3.5 | 9.6 | 0.00 | 0.00 | 0.00 | 49 | 1021.1 |
| 20260507081026 | 67 | 263 | 5.2 | 7.0 | 0.00 | 0.00 | 0.00 | 44 | 1021.1 |
| 20260507080032 | 67 | 346 | 4.3 | 7.8 | 0.00 | 0.00 | 0.00 | 44 | 1021.0 |
| 20260507075017 | 66 | 318 | 2.6 | 7.0 | 0.00 | 0.00 | 0.00 | 43 | 1020.7 |
| 20260507074026 | 67 | 331 | 1.7 | 3.5 | 0.00 | 0.00 | 0.00 | 43 | 1020.5 |
| 20260507073015 | 65 | 331 | 2.6 | 3.5 | 0.00 | 0.00 | 0.00 | 46 | 1020.9 |
| 20260507072019 | 65 | 17 | 0.9 | 2.6 | 0.00 | 0.00 | 0.00 | 45 | 1020.9 |
| 20260507071028 | 64 | 17 | 0.0 | 1.7 | 0.00 | 0.00 | 0.00 | 49 | 1020.8 |
| 20260507070032 | 63 | 17 | 0.0 | 0.0 | 0.00 | 0.00 | 0.00 | 62 | 1020.7 |
| 20260507065018 | 60 | 17 | 0.0 | 0.0 | 0.00 | 0.00 | 0.00 | 63 | 1021.0 |
| 20260507064026 | 58 | 17 | 0.0 | 0.0 | 0.00 | 0.00 | 0.00 | 67 | 1021.0 |
| 20260507063015 | 57 | 17 | 0.0 | 0.0 | 0.00 | 0.00 | 0.00 | 62 | 1021.0 |
| 20260507062019 | 56 | 17 | 0.0 | 0.0 | 0.00 | 0.00 | 0.00 | 64 | 1021.0 |
| 20260507061022 | 55 | 17 | 0.0 | 0.0 | 0.00 | 0.00 | 0.00 | 64 | 1021.0 |
| 20260507060031 | 54 | 17 | 0.0 | 0.0 | 0.00 | 0.00 | 0.00 | 68 | 1021.0 |
| 20260507055028 | 53 | 17 | 0.0 | 0.0 | 0.00 | 0.00 | 0.00 | 70 | 1021.0 |
| 20260507054016 | 52 | 17 | 0.0 | 0.0 | 0.00 | 0.00 | 0.00 | 69 | 1021.0 |
| 20260507053026 | 51 | 17 | 0.0 | 0.0 | 0.00 | 0.00 | 0.00 | 66 | 1021.0 |
| 20260507052012 | 50 | 17 | 0.0 | 0.0 | 0.00 | 0.00 | 0.00 | 72 | 1020.7 |
| 20260507051042 | 48 | 17 | 0.0 | 0.0 | 0.00 | 0.00 | 0.00 | 75 | 1020.6 |
| 20260507050032 | 49 | 17 | 0.0 | 0.0 | 0.00 | 0.00 | 0.00 | 73 | 1020.5 |
| 20260507045013 | 47 | 17 | 0.0 | 0.0 | 0.00 | 0.00 | 0.00 | 77 | 1020.3 |
| 20260507044019 | 46 | 17 | 0.0 | 0.0 | 0.00 | 0.00 | 0.00 | 77 | 1020.3 |
| 20260507043028 | 45 | 17 | 0.0 | 0.0 | 0.00 | 0.00 | 0.00 | 77 | 1020.1 |
| 20260507042016 | 45 | 17 | 0.0 | 0.0 | 0.00 | 0.00 | 0.00 | 78 | 1020.0 |
| 20260507041022 | 44 | 17 | 0.0 | 0.0 | 0.00 | 0.00 | 0.00 | 79 | 1019.9 |
| 20260507040031 | 45 | 17 | 0.0 | 0.0 | 0.00 | 0.00 | 0.00 | 78 | 1019.8 |
| 20260507035013 | 45 | 17 | 0.0 | 0.0 | 0.00 | 0.00 | 0.00 | 78 | 1019.8 |
| 20260507034019 | 45 | 17 | 0.9 | 1.7 | 0.00 | 0.00 | 0.00 | 78 | 1019.8 |
| 20260507033029 | 44 | 17 | 0.0 | 0.0 | 0.00 | 0.00 | 0.00 | 78 | 1019.8 |
| 20260507032037 | 45 | 17 | 0.0 | 0.0 | 0.00 | 0.00 | 0.00 | 77 | 1020.0 |
| 20260507031026 | 45 | 17 | 0.0 | 0.9 | 0.00 | 0.00 | 0.00 | 75 | 1019.9 |
| 20260507030032 | 45 | 17 | 0.0 | 0.0 | 0.00 | 0.00 | 0.00 | 77 | 1019.9 |
| 20260507025027 | 44 | 15 | 0.0 | 1.7 | 0.00 | 0.00 | 0.00 | 78 | 1020.0 |
| 20260507024016 | 45 | 14 | 1.7 | 5.2 | 0.00 | 0.00 | 0.00 | 75 | 1020.0 |
| 20260507023046 | 45 | 142 | 0.9 | 2.6 | 0.00 | 0.00 | 0.00 | 77 | 1019.9 |
| 20260507022013 | 44 | 60 | 0.9 | 1.7 | 0.00 | 0.00 | 0.00 | 78 | 1020.2 |
| 20260507021022 | 44 | 60 | 0.9 | 1.7 | 0.00 | 0.00 | 0.00 | 78 | 1020.1 |
| 20260507020031 | 44 | 60 | 0.9 | 2.6 | 0.00 | 0.00 | 0.00 | 78 | 1020.2 |
| 20260507015028 | 44 | 59 | 1.7 | 2.6 | 0.00 | 0.00 | 0.00 | 78 | 1020.3 |
| 20260507014038 | 45 | 54 | 0.9 | 2.6 | 0.00 | 0.00 | 0.00 | 75 | 1020.3 |
| 20260507013025 | 44 | 53 | 0.0 | 1.7 | 0.00 | 0.00 | 0.00 | 76 | 1020.5 |
| 20260507012013 | 45 | 53 | 0.0 | 2.6 | 0.00 | 0.00 | 0.00 | 75 | 1020.2 |
| 20260507010032 | 46 | 53 | 1.7 | 2.6 | 0.00 | 0.00 | 0.00 | 72 | 1020.2 |
| 20260507005013 | 47 | 57 | 0.0 | 3.5 | 0.00 | 0.00 | 0.00 | 71 | 1020.0 |
| 20260507004039 | 47 | 136 | 0.9 | 4.3 | 0.00 | 0.00 | 0.00 | 69 | 1019.8 |
| 20260507003047 | 48 | 157 | 0.9 | 5.2 | 0.00 | 0.00 | 0.00 | 68 | 1019.6 |
| 20260507002015 | 47 | 128 | 1.7 | 4.3 | 0.00 | 0.00 | 0.00 | 69 | 1019.7 |
| 20260507001022 | 47 | 121 | 0.0 | 2.6 | 0.00 | 0.00 | 0.00 | 68 | 1020.2 |
| 20260507000031 | 48 | 121 | 0.9 | 1.7 | 0.00 | 0.00 | 0.00 | 67 | 1020.3 |
| 20260506235027 | 47 | 121 | 0.9 | 0.9 | 0.00 | 0.00 | 0.00 | 67 | 1020.6 |
| 20260506234016 | 46 | 121 | 0.0 | 0.9 | 0.00 | 0.00 | 0.00 | 70 | 1020.3 |
| 20260506233026 | 46 | 121 | 0.0 | 0.0 | 0.00 | 0.00 | 0.00 | 69 | 1020.3 |
| 20260506232015 | 45 | 121 | 0.0 | 0.0 | 0.00 | 0.00 | 0.00 | 73 | 1020.5 |
| 20260506231043 | 45 | 121 | 0.0 | 0.9 | 0.00 | 0.00 | 0.00 | 72 | 1020.5 |
| 20260506230031 | 47 | 121 | 0.9 | 1.7 | 0.00 | 0.00 | 0.00 | 68 | 1020.6 |
| 20260506225018 | 46 | 121 | 0.0 | 0.9 | 0.00 | 0.00 | 0.00 | 68 | 1020.5 |
| 20260506224025 | 47 | 121 | 0.9 | 2.6 | 0.00 | 0.00 | 0.00 | 68 | 1020.6 |
| 20260506223035 | 47 | 121 | 0.0 | 0.9 | 0.00 | 0.00 | 0.00 | 68 | 1020.8 |
| 20260506222020 | 47 | 121 | 0.0 | 1.7 | 0.00 | 0.00 | 0.00 | 67 | 1020.6 |
| 20260506221021 | 48 | 121 | 0.0 | 0.9 | 0.00 | 0.00 | 0.00 | 67 | 1020.6 |
| 20260506220052 | 48 | 121 | 0.0 | 1.7 | 0.00 | 0.00 | 0.00 | 66 | 1020.5 |
| 20260506215032 | 48 | 121 | 0.9 | 2.6 | 0.00 | 0.00 | 0.00 | 66 | 1020.5 |
| 20260506214017 | 49 | 121 | 0.0 | 5.2 | 0.00 | 0.00 | 0.00 | 66 | 1020.7 |
| 20260506213027 | 50 | 115 | 1.7 | 3.5 | 0.00 | 0.00 | 0.00 | 61 | 1020.7 |
| 20260506212016 | 49 | 113 | 2.6 | 3.5 | 0.00 | 0.00 | 0.00 | 64 | 1020.8 |
| 20260506211024 | 49 | 115 | 0.0 | 0.9 | 0.00 | 0.00 | 0.00 | 63 | 1020.8 |
| 20260506210032 | 49 | 115 | 0.9 | 1.7 | 0.00 | 0.00 | 0.00 | 64 | 1021.2 |
| 20260506205013 | 49 | 115 | 0.0 | 0.0 | 0.00 | 0.00 | 0.00 | 65 | 1021.1 |
| 20260506204018 | 49 | 115 | 0.0 | 0.0 | 0.00 | 0.00 | 0.00 | 65 | 1021.2 |
| 20260506203027 | 48 | 115 | 0.0 | 0.9 | 0.00 | 0.00 | 0.00 | 66 | 1021.2 |
| 20260506202037 | 49 | 115 | 0.0 | 1.7 | 0.00 | 0.00 | 0.00 | 62 | 1021.1 |
| 20260506201023 | 50 | 115 | 0.0 | 0.9 | 0.00 | 0.00 | 0.00 | 60 | 1021.0 |
| 20260506200032 | 49 | 115 | 0.0 | 2.6 | 0.00 | 0.00 | 0.00 | 63 | 1021.0 |
| 20260506195012 | 49 | 115 | 0.0 | 0.0 | 0.00 | 0.00 | 0.00 | 65 | 1021.0 |
| 20260506194019 | 50 | 115 | 0.0 | 1.7 | 0.00 | 0.00 | 0.00 | 60 | 1021.1 |
| 20260506193027 | 50 | 115 | 0.0 | 0.9 | 0.00 | 0.00 | 0.00 | 60 | 1021.3 |
| 20260506192014 | 51 | 115 | 0.9 | 2.6 | 0.00 | 0.00 | 0.00 | 58 | 1021.1 |
| 20260506191022 | 51 | 115 | 1.7 | 3.5 | 0.00 | 0.00 | 0.00 | 58 | 1021.1 |
| 20260506190052 | 51 | 90 | 0.9 | 1.7 | 0.00 | 0.00 | 0.00 | 63 | 1021.1 |
| 20260506185018 | 52 | 90 | 0.0 | 1.7 | 0.00 | 0.00 | 0.00 | 61 | 1020.9 |
| 20260506184025 | 52 | 90 | 0.9 | 1.7 | 0.00 | 0.00 | 0.00 | 63 | 1020.9 |
| 20260506183032 | 53 | 90 | 0.9 | 2.6 | 0.00 | 0.00 | 0.00 | 61 | 1020.7 |
| 20260506182041 | 53 | 89 | 1.7 | 3.5 | 0.00 | 0.00 | 0.00 | 62 | 1020.7 |
| 20260506181022 | 53 | 123 | 1.7 | 3.5 | 0.00 | 0.00 | 0.00 | 62 | 1020.6 |
| 20260506180032 | 53 | 68 | 0.0 | 0.0 | 0.00 | 0.00 | 0.00 | 63 | 1020.4 |
| 20260506175031 | 54 | 68 | 0.0 | 1.7 | 0.00 | 0.00 | 0.00 | 61 | 1020.4 |
| 20260506174018 | 54 | 67 | 0.9 | 2.6 | 0.00 | 0.00 | 0.00 | 59 | 1020.1 |
| 20260506173027 | 55 | 67 | 0.0 | 0.9 | 0.00 | 0.00 | 0.00 | 57 | 1020.1 |
| 20260506172014 | 56 | 67 | 0.9 | 2.6 | 0.00 | 0.00 | 0.00 | 57 | 1020.1 |
| 20260506171023 | 56 | 340 | 0.0 | 1.7 | 0.00 | 0.00 | 0.00 | 56 | 1020.1 |
| 20260506170033 | 57 | 340 | 0.0 | 0.0 | 0.00 | 0.00 | 0.00 | 54 | 1019.9 |
| 20260506165017 | 59 | 340 | 0.9 | 3.5 | 0.00 | 0.00 | 0.00 | 49 | 1019.9 |
| 20260506164039 | 60 | 341 | 2.6 | 4.3 | 0.00 | 0.00 | 0.00 | 45 | 1019.7 |
| 20260506163027 | 60 | 329 | 1.7 | 3.5 | 0.00 | 0.00 | 0.00 | 45 | 1019.7 |